Time,TemperatureF,DewpointF,PressureIn,WindDirection,WindDirectionDegrees,WindSpeedMPH,WindSpeedGustMPH,Humidity,HourlyPrecipIn,Conditions,Clouds,dailyrainin,SoftwareType,DateUTC
2013-10-25 00:01:00,46.4,42.7,30.20,NNW,344,1.0,2.0,87,0.00,FEW,,0.00,WeatherDisplay:10.37,2013-10-25 04:01:00,
2013-10-25 00:02:00,46.5,42.8,30.20,North,355,2.3,2.3,87,0.00,FEW,,0.00,WeatherDisplay:10.37,2013-10-25 04:02:00,
2013-10-25 00:07:00,46.7,42.7,30.20,WNW,294,2.0,2.0,86,0.00,FEW,,0.00,WeatherDisplay:10.37,2013-10-25 04:07:00,
2013-10-25 00:12:00,46.9,42.6,30.21,NNW,329,2.3,2.3,85,0.00,FEW,,0.00,WeatherDisplay:10.37,2013-10-25 04:12:00,
2013-10-25 00:17:00,47.0,42.4,30.20,NNW,336,1.2,1.2,84,0.00,FEW,,0.00,WeatherDisplay:10.37,2013-10-25 04:17:00,
2013-10-25 00:22:00,47.1,42.5,30.20,NNW,333,2.3,2.3,84,0.00,FEW,,0.00,WeatherDisplay:10.37,2013-10-25 04:22:00,
2013-10-25 00:27:00,47.2,42.3,30.21,NNW,338,2.3,2.3,83,0.00,FEW,,0.00,WeatherDisplay:10.37,2013-10-25 04:27:00,
2013-10-25 00:32:00,47.2,42.3,30.21,NNW,339,3.5,3.5,83,0.00,FEW,,0.00,WeatherDisplay:10.37,2013-10-25 04:32:00,
2013-10-25 00:37:00,47.2,42.3,30.20,North,5,2.3,2.3,83,0.00,FEW,,0.00,WeatherDisplay:10.37,2013-10-25 04:37:00,
2013-10-25 00:42:00,47.2,42.0,30.21,NNW,338,2.3,2.3,82,0.00,FEW,,0.00,WeatherDisplay:10.37,2013-10-25 04:42:00,
2013-10-25 00:47:00,47.2,42.0,30.20,NNW,338,1.0,1.0,82,0.00,FEW,,0.00,WeatherDisplay:10.37,2013-10-25 04:47:00,
2013-10-25 00:52:00,47.2,42.3,30.20,NNW,334,2.3,2.3,83,0.00,FEW,,0.00,WeatherDisplay:10.37,2013-10-25 04:52:00,
2013-10-25 00:57:00,47.1,41.9,30.20,NNW,339,2.3,2.3,82,0.00,FEW,,0.00,WeatherDisplay:10.37,2013-10-25 04:57:00,
2013-10-25 01:02:00,47.1,41.9,30.21,NNW,336,2.3,2.3,82,0.00,FEW,,0.00,WeatherDisplay:10.37,2013-10-25 05:02:00,
2013-10-25 01:07:00,47.0,42.1,30.21,NW,311,2.3,2.3,83,0.00,FEW,,0.00,WeatherDisplay:10.37,2013-10-25 05:07:00,
2013-10-25 01:12:00,47.0,41.8,30.21,NW,321,1.2,1.2,82,0.00,FEW,,0.00,WeatherDisplay:10.37,2013-10-25 05:12:00,
2013-10-25 01:17:00,47.0,41.8,30.21,NNW,332,2.3,0.0,82,0.00,FEW,,0.00,WeatherDisplay:10.37,2013-10-25 05:17:00,
2013-10-25 01:23:00,47.1,41.9,30.21,NNW,331,2.3,2.3,82,0.00,FEW,,0.00,WeatherDisplay:10.37,2013-10-25 05:23:00,
2013-10-25 01:28:00,47.1,41.9,30.21,NW,323,2.3,2.3,82,0.00,FEW,,0.00,WeatherDisplay:10.37,2013-10-25 05:28:00,
2013-10-25 01:33:00,47.2,42.3,30.21,NNW,343,2.3,2.3,83,0.00,FEW,,0.00,WeatherDisplay:10.37,2013-10-25 05:33:00,
2013-10-25 01:38:00,47.2,42.0,30.21,NNW,331,3.5,3.5,82,0.00,FEW,,0.00,WeatherDisplay:10.37,2013-10-25 05:38:00,
2013-10-25 01:43:00,47.2,41.7,30.22,NW,313,2.3,2.3,81,0.00,FEW,,0.00,WeatherDisplay:10.37,2013-10-25 05:43:00,
2013-10-25 01:48:00,47.2,41.7,30.22,NW,315,2.3,2.3,81,0.00,FEW,,0.00,WeatherDisplay:10.37,2013-10-25 05:48:00,
2013-10-25 01:53:00,47.2,41.7,30.22,NNW,334,5.8,5.8,81,0.00,FEW,,0.00,WeatherDisplay:10.37,2013-10-25 05:53:00,
2013-10-25 01:58:00,47.1,41.6,30.22,NW,313,2.3,2.3,81,0.00,FEW,,0.00,WeatherDisplay:10.37,2013-10-25 05:58:00,
2013-10-25 02:03:00,46.9,41.4,30.23,NNW,345,2.3,2.3,81,0.00,FEW,,0.00,WeatherDisplay:10.37,2013-10-25 06:03:00,
2013-10-25 02:08:00,46.8,41.3,30.23,NW,319,3.5,3.5,81,0.00,FEW,,0.00,WeatherDisplay:10.37,2013-10-25 06:08:00,
2013-10-25 02:13:00,46.6,40.8,30.23,North,350,3.5,3.5,80,0.00,FEW,,0.00,WeatherDisplay:10.37,2013-10-25 06:13:00,
2013-10-25 02:18:00,46.3,40.5,30.23,NNW,341,4.6,4.6,80,0.00,FEW,,0.00,WeatherDisplay:10.37,2013-10-25 06:18:00,
2013-10-25 02:23:00,46.0,39.9,30.24,NW,316,4.6,4.6,79,0.00,FEW,,0.00,WeatherDisplay:10.37,2013-10-25 06:23:00,
2013-10-25 02:28:00,45.8,39.7,30.24,North,5,2.3,2.3,79,0.00,FEW,,0.00,WeatherDisplay:10.37,2013-10-25 06:28:00,
2013-10-25 02:33:00,45.6,39.8,30.24,NNW,340,5.8,5.8,80,0.00,FEW,,0.00,WeatherDisplay:10.37,2013-10-25 06:33:00,
2013-10-25 02:38:00,45.3,39.8,30.24,WSW,242,3.5,3.5,81,0.00,FEW,,0.00,WeatherDisplay:10.37,2013-10-25 06:38:00,
2013-10-25 02:43:00,45.1,38.6,30.24,NNW,329,4.6,4.6,78,0.00,FEW,,0.00,WeatherDisplay:10.37,2013-10-25 06:43:00,
2013-10-25 02:48:00,44.9,38.8,30.24,NNW,328,3.5,3.5,79,0.00,FEW,,0.00,WeatherDisplay:10.37,2013-10-25 06:48:00,
2013-10-25 02:53:00,44.7,38.6,30.24,WSW,252,2.3,2.3,79,0.00,FEW,,0.00,WeatherDisplay:10.37,2013-10-25 06:53:00,
2013-10-25 02:58:00,44.6,38.5,30.25,NNW,334,2.3,2.3,79,0.00,FEW,,0.00,WeatherDisplay:10.37,2013-10-25 06:58:00,
2013-10-25 03:03:00,44.5,38.7,30.25,NNW,333,1.2,0.0,80,0.00,FEW,,0.00,WeatherDisplay:10.37,2013-10-25 07:03:00,
2013-10-25 03:08:00,44.3,38.5,30.25,West,265,2.3,2.3,80,0.00,FEW,,0.00,WeatherDisplay:10.37,2013-10-25 07:08:00,
2013-10-25 03:13:00,44.2,38.4,30.25,NNW,341,1.2,1.2,80,0.00,CLR,,0.00,WeatherDisplay:10.37,2013-10-25 07:13:00,
2013-10-25 03:18:00,44.0,38.2,30.25,NW,319,1.2,1.2,80,0.00,CLR,,0.00,WeatherDisplay:10.37,2013-10-25 07:18:00,
2013-10-25 03:23:00,43.9,38.1,30.25,WNW,293,1.2,0.0,80,0.00,CLR,,0.00,WeatherDisplay:10.37,2013-10-25 07:23:00,
2013-10-25 03:28:00,43.7,37.9,30.25,WNW,300,1.2,1.2,80,0.00,CLR,,0.00,WeatherDisplay:10.37,2013-10-25 07:28:00,
2013-10-25 03:33:00,43.5,37.7,30.25,NNE,13,2.3,2.3,80,0.00,CLR,,0.00,WeatherDisplay:10.37,2013-10-25 07:33:00,
2013-10-25 03:38:00,43.3,37.5,30.25,NW,316,3.0,3.0,80,0.00,CLR,,0.00,WeatherDisplay:10.37,2013-10-25 07:38:00,
2013-10-25 03:43:00,43.1,37.3,30.26,NNW,337,1.2,1.2,80,0.00,CLR,,0.00,WeatherDisplay:10.37,2013-10-25 07:43:00,
2013-10-25 03:48:00,42.9,37.2,30.26,NW,304,4.0,4.0,80,0.00,CLR,,0.00,WeatherDisplay:10.37,2013-10-25 07:48:00,
2013-10-25 03:53:00,42.8,37.1,30.26,NW,319,1.2,1.2,80,0.00,CLR,,0.00,WeatherDisplay:10.37,2013-10-25 07:53:00,
2013-10-25 03:58:00,42.5,37.1,30.26,NW,306,3.5,3.5,81,0.00,CLR,,0.00,WeatherDisplay:10.37,2013-10-25 07:58:00,
2013-10-25 04:03:00,42.4,37.0,30.26,NW,318,2.3,2.3,81,0.00,CLR,,0.00,WeatherDisplay:10.37,2013-10-25 08:03:00,
2013-10-25 04:08:00,42.2,36.5,30.26,WNW,286,3.5,3.5,80,0.00,CLR,,0.00,WeatherDisplay:10.37,2013-10-25 08:08:00,
2013-10-25 04:13:00,42.0,36.3,30.26,NNW,333,3.5,3.5,80,0.00,CLR,,0.00,WeatherDisplay:10.37,2013-10-25 08:13:00,
2013-10-25 04:18:00,41.8,36.1,30.26,NNW,330,1.0,0.0,80,0.00,CLR,,0.00,WeatherDisplay:10.37,2013-10-25 08:18:00,
2013-10-25 04:23:00,41.6,35.6,30.26,NNW,327,2.3,2.3,79,0.00,CLR,,0.00,WeatherDisplay:10.37,2013-10-25 08:23:00,
2013-10-25 04:28:00,41.5,35.8,30.26,NNW,338,3.5,3.5,80,0.00,CLR,,0.00,WeatherDisplay:10.37,2013-10-25 08:28:00,
2013-10-25 04:33:00,41.3,35.3,30.26,NNW,348,1.2,1.2,79,0.00,CLR,,0.00,WeatherDisplay:10.37,2013-10-25 08:33:00,
2013-10-25 04:38:00,41.2,35.2,30.26,NW,319,2.3,2.3,79,0.00,CLR,,0.00,WeatherDisplay:10.37,2013-10-25 08:38:00,
2013-10-25 04:43:00,41.1,35.1,30.26,NNW,332,2.3,2.3,79,0.00,CLR,,0.00,WeatherDisplay:10.37,2013-10-25 08:43:00,
2013-10-25 04:48:00,40.9,34.6,30.27,NW,323,1.2,1.2,78,0.00,CLR,,0.00,WeatherDisplay:10.37,2013-10-25 08:48:00,
2013-10-25 04:53:00,40.8,34.8,30.27,NNW,333,1.2,1.2,79,0.00,CLR,,0.00,WeatherDisplay:10.37,2013-10-25 08:53:00,
2013-10-25 04:58:00,40.6,34.6,30.27,NW,312,2.3,2.3,79,0.00,CLR,,0.00,WeatherDisplay:10.37,2013-10-25 08:58:00,
2013-10-25 05:03:00,40.4,34.4,30.27,NNW,333,3.5,3.5,79,0.00,CLR,,0.00,WeatherDisplay:10.37,2013-10-25 09:03:00,
2013-10-25 05:08:00,40.2,34.2,30.27,NNW,346,2.3,2.3,79,0.00,CLR,,0.00,WeatherDisplay:10.37,2013-10-25 09:08:00,
2013-10-25 05:13:00,40.0,33.7,30.27,NNW,340,3.5,3.5,78,0.00,CLR,,0.00,WeatherDisplay:10.37,2013-10-25 09:13:00,
2013-10-25 05:18:00,39.8,33.5,30.27,West,267,3.5,3.5,78,0.00,CLR,,0.00,WeatherDisplay:10.37,2013-10-25 09:18:00,
2013-10-25 05:23:00,39.7,33.4,30.27,NNW,342,3.0,3.0,78,0.00,CLR,,0.00,WeatherDisplay:10.37,2013-10-25 09:23:00,
2013-10-25 05:28:00,39.5,33.2,30.28,South,186,2.0,2.0,78,0.00,CLR,,0.00,WeatherDisplay:10.37,2013-10-25 09:28:00,
2013-10-25 05:33:00,39.4,33.1,30.28,North,351,1.2,1.2,78,0.00,CLR,,0.00,WeatherDisplay:10.37,2013-10-25 09:33:00,
2013-10-25 05:38:00,39.3,33.0,30.28,NW,325,2.3,2.3,78,0.00,CLR,,0.00,WeatherDisplay:10.37,2013-10-25 09:38:00,
2013-10-25 05:43:00,39.1,32.8,30.28,NW,319,2.3,2.3,78,0.00,CLR,,0.00,WeatherDisplay:10.37,2013-10-25 09:43:00,
2013-10-25 05:48:00,39.0,32.7,30.28,NNW,332,2.3,2.3,78,0.00,CLR,,0.00,WeatherDisplay:10.37,2013-10-25 09:48:00,
2013-10-25 05:53:00,38.9,32.6,30.28,NNW,328,2.3,2.3,78,0.00,CLR,,0.00,WeatherDisplay:10.37,2013-10-25 09:53:00,
2013-10-25 05:58:00,38.7,32.1,30.28,North,350,3.5,3.5,77,0.00,CLR,,0.00,WeatherDisplay:10.37,2013-10-25 09:58:00,
2013-10-25 06:03:00,38.6,32.3,30.29,NNE,22,3.5,3.5,78,0.00,CLR,,0.00,WeatherDisplay:10.37,2013-10-25 10:03:00,
2013-10-25 06:08:00,38.4,32.1,30.29,North,350,2.3,2.3,78,0.00,CLR,,0.00,WeatherDisplay:10.37,2013-10-25 10:08:00,
2013-10-25 06:13:00,38.2,31.6,30.29,NNW,334,2.3,2.3,77,0.00,CLR,,0.00,WeatherDisplay:10.37,2013-10-25 10:13:00,
2013-10-25 06:18:00,38.1,31.5,30.29,NNW,338,2.3,2.3,77,0.00,CLR,,0.00,WeatherDisplay:10.37,2013-10-25 10:18:00,
2013-10-25 06:23:00,38.0,31.4,30.30,NNW,336,1.2,1.2,77,0.00,CLR,,0.00,WeatherDisplay:10.37,2013-10-25 10:23:00,
2013-10-25 06:28:00,37.8,31.2,30.30,NNW,328,3.5,3.5,77,0.00,CLR,,0.00,WeatherDisplay:10.37,2013-10-25 10:28:00,
2013-10-25 06:33:00,37.7,31.1,30.30,NNE,23,0.0,0.0,77,0.00,CLR,,0.00,WeatherDisplay:10.37,2013-10-25 10:33:00,
2013-10-25 06:38:00,37.6,31.4,30.31,WNW,282,4.0,4.0,78,0.00,CLR,,0.00,WeatherDisplay:10.37,2013-10-25 10:38:00,
2013-10-25 06:43:00,37.4,30.8,30.31,NNW,332,2.3,2.3,77,0.00,CLR,,0.00,WeatherDisplay:10.37,2013-10-25 10:43:00,
2013-10-25 06:48:00,37.3,30.7,30.31,NNW,336,3.5,3.5,77,0.00,CLR,,0.00,WeatherDisplay:10.37,2013-10-25 10:48:00,
2013-10-25 06:53:00,37.1,30.6,30.31,NW,325,4.6,4.6,77,0.00,CLR,,0.00,WeatherDisplay:10.37,2013-10-25 10:53:00,
2013-10-25 06:58:00,36.9,30.4,30.31,NNW,334,5.8,5.8,77,0.00,CLR,,0.00,WeatherDisplay:10.37,2013-10-25 10:58:00,
2013-10-25 07:03:00,36.7,30.5,30.32,NNW,333,3.5,3.5,78,0.00,CLR,,0.00,WeatherDisplay:10.37,2013-10-25 11:03:00,
2013-10-25 07:08:00,36.6,30.4,30.32,NW,323,2.3,2.3,78,0.00,CLR,,0.00,WeatherDisplay:10.37,2013-10-25 11:08:00,
2013-10-25 07:13:00,36.4,30.2,30.32,WSW,255,2.3,2.3,78,0.00,CLR,,0.00,WeatherDisplay:10.37,2013-10-25 11:13:00,
2013-10-25 07:18:00,36.3,30.1,30.32,NNW,330,3.5,3.5,78,0.00,CLR,,0.00,WeatherDisplay:10.37,2013-10-25 11:18:00,
2013-10-25 07:23:00,36.1,29.9,30.32,NNW,340,3.5,3.5,78,0.00,CLR,,0.00,WeatherDisplay:10.37,2013-10-25 11:23:00,
2013-10-25 07:28:00,36.0,29.8,30.33,NNW,327,3.5,3.5,78,0.00,CLR,,0.00,WeatherDisplay:10.37,2013-10-25 11:28:00,
2013-10-25 07:33:00,35.9,29.7,30.33,North,9,1.2,0.0,78,0.00,CLR,,0.00,WeatherDisplay:10.37,2013-10-25 11:33:00,
2013-10-25 07:38:00,35.8,29.9,30.33,NNW,331,3.5,3.5,79,0.00,CLR,,0.00,WeatherDisplay:10.37,2013-10-25 11:38:00,
2013-10-25 07:43:00,35.7,29.5,30.33,WSW,252,3.5,3.5,78,0.00,CLR,,0.00,WeatherDisplay:10.37,2013-10-25 11:43:00,
2013-10-25 07:48:00,35.6,29.7,30.33,NW,317,2.3,2.3,79,0.00,CLR,,0.00,WeatherDisplay:10.37,2013-10-25 11:48:00,
2013-10-25 07:53:00,35.5,29.6,30.33,NNW,329,2.3,2.3,79,0.00,CLR,,0.00,WeatherDisplay:10.37,2013-10-25 11:53:00,
2013-10-25 07:58:00,35.4,29.5,30.34,NNW,333,3.5,3.5,79,0.00,CLR,,0.00,WeatherDisplay:10.37,2013-10-25 11:58:00,
2013-10-25 08:03:00,35.3,29.1,30.34,NNW,330,3.5,3.5,78,0.00,CLR,,0.00,WeatherDisplay:10.37,2013-10-25 12:03:00,
2013-10-25 08:08:00,35.2,29.0,30.34,NNW,330,3.5,3.5,78,0.00,CLR,,0.00,WeatherDisplay:10.37,2013-10-25 12:08:00,
2013-10-25 08:13:00,35.1,28.9,30.34,NNW,336,3.5,3.5,78,0.00,CLR,,0.00,WeatherDisplay:10.37,2013-10-25 12:13:00,
2013-10-25 08:18:00,35.0,28.8,30.34,WNW,292,3.5,3.5,78,0.00,CLR,,0.00,WeatherDisplay:10.37,2013-10-25 12:18:00,
2013-10-25 08:23:00,35.0,29.1,30.34,NNW,343,3.5,3.5,79,0.00,CLR,,0.00,WeatherDisplay:10.37,2013-10-25 12:23:00,
2013-10-25 08:28:00,35.0,28.8,30.34,NNW,335,4.6,4.6,78,0.00,CLR,,0.00,WeatherDisplay:10.37,2013-10-25 12:28:00,
2013-10-25 08:33:00,35.0,28.5,30.34,NNW,331,3.5,3.5,77,0.00,CLR,,0.00,WeatherDisplay:10.37,2013-10-25 12:33:00,
2013-10-25 08:38:00,35.1,28.9,30.34,NNW,341,3.5,3.5,78,0.00,CLR,,0.00,WeatherDisplay:10.37,2013-10-25 12:38:00,
2013-10-25 08:43:00,35.2,28.7,30.35,NNW,339,3.5,3.5,77,0.00,CLR,,0.00,WeatherDisplay:10.37,2013-10-25 12:43:00,
2013-10-25 08:48:00,35.3,28.8,30.35,NW,325,9.2,9.2,77,0.00,CLR,,0.00,WeatherDisplay:10.37,2013-10-25 12:48:00,
2013-10-25 08:53:00,35.4,28.9,30.35,NNW,344,4.6,4.6,77,0.00,CLR,,0.00,WeatherDisplay:10.37,2013-10-25 12:53:00,
2013-10-25 08:58:00,35.5,28.7,30.35,SSW,197,4.6,4.6,76,0.00,CLR,,0.00,WeatherDisplay:10.37,2013-10-25 12:58:00,
2013-10-25 09:03:00,35.6,28.8,30.35,NNW,335,4.6,4.6,76,0.00,CLR,,0.00,WeatherDisplay:10.37,2013-10-25 13:03:00,
2013-10-25 09:08:00,35.7,29.2,30.35,NW,311,5.0,5.0,77,0.00,CLR,,0.00,WeatherDisplay:10.37,2013-10-25 13:08:00,
2013-10-25 09:13:00,35.9,29.1,30.35,NW,305,3.5,3.5,76,0.00,CLR,,0.00,WeatherDisplay:10.37,2013-10-25 13:13:00,
2013-10-25 09:18:00,36.1,29.3,30.36,NNW,347,4.6,4.6,76,0.00,CLR,,0.00,WeatherDisplay:10.37,2013-10-25 13:18:00,
2013-10-25 09:23:00,36.3,29.1,30.36,NNW,342,4.6,4.6,75,0.00,CLR,,0.00,WeatherDisplay:10.37,2013-10-25 13:23:00,
2013-10-25 09:28:00,36.5,29.3,30.36,NNW,328,2.3,2.3,75,0.00,CLR,,0.00,WeatherDisplay:10.37,2013-10-25 13:28:00,
2013-10-25 09:33:00,36.8,29.3,30.37,WSW,257,2.3,2.3,74,0.00,CLR,,0.00,WeatherDisplay:10.37,2013-10-25 13:33:00,
2013-10-25 09:38:00,37.1,29.6,30.37,North,5,5.8,5.8,74,0.00,CLR,,0.00,WeatherDisplay:10.37,2013-10-25 13:38:00,
2013-10-25 09:43:00,37.4,29.5,30.37,NNW,327,4.0,4.0,73,0.00,CLR,,0.00,WeatherDisplay:10.37,2013-10-25 13:43:00,
2013-10-25 09:48:00,37.7,29.5,30.37,NNW,337,2.3,2.3,72,0.00,CLR,,0.00,WeatherDisplay:10.37,2013-10-25 13:48:00,
2013-10-25 09:53:00,38.0,30.1,30.37,North,355,2.3,2.3,73,0.00,CLR,,0.00,WeatherDisplay:10.37,2013-10-25 13:53:00,
2013-10-25 09:58:00,38.3,29.4,30.37,NNW,344,6.9,6.9,70,0.00,CLR,,0.00,WeatherDisplay:10.37,2013-10-25 13:58:00,
2013-10-25 10:03:00,38.6,30.4,30.37,NNW,337,2.3,2.3,72,0.00,CLR,,0.00,WeatherDisplay:10.37,2013-10-25 14:03:00,
2013-10-25 10:08:00,38.9,29.9,30.37,NE,42,1.2,1.2,70,0.00,CLR,,0.00,WeatherDisplay:10.37,2013-10-25 14:08:00,
2013-10-25 10:13:00,39.2,29.5,30.37,NNW,346,5.8,5.8,68,0.00,CLR,,0.00,WeatherDisplay:10.37,2013-10-25 14:13:00,
2013-10-25 10:18:00,39.3,28.9,30.37,NNW,331,2.3,2.3,66,0.00,CLR,,0.00,WeatherDisplay:10.37,2013-10-25 14:18:00,
2013-10-25 10:23:00,39.5,29.1,30.38,WSW,247,2.3,2.3,66,0.00,CLR,,0.00,WeatherDisplay:10.37,2013-10-25 14:23:00,
2013-10-25 10:28:00,39.7,29.3,30.38,NNW,344,2.3,2.3,66,0.00,CLR,,0.00,WeatherDisplay:10.37,2013-10-25 14:28:00,
2013-10-25 10:33:00,40.0,30.3,30.38,NNW,334,2.3,2.3,68,0.00,CLR,,0.00,WeatherDisplay:10.37,2013-10-25 14:33:00,
2013-10-25 10:38:00,40.3,29.8,30.38,WSW,244,1.2,1.2,66,0.00,CLR,,0.00,WeatherDisplay:10.37,2013-10-25 14:38:00,
2013-10-25 10:43:00,40.6,30.1,30.38,NNW,329,3.5,3.5,66,0.00,CLR,,0.00,WeatherDisplay:10.37,2013-10-25 14:43:00,
2013-10-25 10:48:00,41.1,30.2,30.37,NNW,336,3.5,3.5,65,0.00,CLR,,0.00,WeatherDisplay:10.37,2013-10-25 14:48:00,
2013-10-25 10:53:00,41.8,30.5,30.37,NW,324,3.5,3.5,64,0.00,CLR,,0.00,WeatherDisplay:10.37,2013-10-25 14:53:00,
2013-10-25 10:58:00,42.0,29.5,30.37,SW,232,3.5,3.5,61,0.00,CLR,,0.00,WeatherDisplay:10.37,2013-10-25 14:58:00,
2013-10-25 11:03:00,42.5,30.8,30.37,NW,317,3.5,3.5,63,0.00,CLR,,0.00,WeatherDisplay:10.37,2013-10-25 15:03:00,
2013-10-25 11:08:00,42.8,29.9,30.37,North,9,3.5,3.5,60,0.00,CLR,,0.00,WeatherDisplay:10.37,2013-10-25 15:08:00,
2013-10-25 11:13:00,43.3,29.9,30.38,NW,322,3.5,3.5,59,0.00,CLR,,0.00,WeatherDisplay:10.37,2013-10-25 15:13:00,
2013-10-25 11:18:00,43.5,30.5,30.38,NNW,341,3.0,3.0,60,0.00,CLR,,0.00,WeatherDisplay:10.37,2013-10-25 15:18:00,
2013-10-25 11:23:00,44.0,31.4,30.37,NNW,337,2.3,2.3,61,0.00,CLR,,0.00,WeatherDisplay:10.37,2013-10-25 15:23:00,
2013-10-25 11:28:00,44.2,30.8,30.37,WSW,254,3.5,3.5,59,0.00,CLR,,0.00,WeatherDisplay:10.37,2013-10-25 15:28:00,
2013-10-25 11:33:00,44.6,31.1,30.37,West,262,3.5,3.5,59,0.00,CLR,,0.00,WeatherDisplay:10.37,2013-10-25 15:33:00,
2013-10-25 11:38:00,45.0,31.1,30.37,WSW,258,3.5,3.5,58,0.00,CLR,,0.00,WeatherDisplay:10.37,2013-10-25 15:38:00,
2013-10-25 11:43:00,45.4,31.0,30.37,WNW,302,3.5,3.5,57,0.00,CLR,,0.00,WeatherDisplay:10.37,2013-10-25 15:43:00,
2013-10-25 11:48:00,45.9,30.6,30.37,NNW,329,3.5,3.5,55,0.00,CLR,,0.00,WeatherDisplay:10.37,2013-10-25 15:48:00,
2013-10-25 11:53:00,46.4,31.5,30.37,WSW,245,2.3,2.3,56,0.00,CLR,,0.00,WeatherDisplay:10.37,2013-10-25 15:53:00,
2013-10-25 11:58:00,46.7,31.4,30.37,NNW,328,3.0,3.0,55,0.00,CLR,,0.00,WeatherDisplay:10.37,2013-10-25 15:58:00,
2013-10-25 12:03:00,46.9,31.6,30.37,NNE,14,1.2,1.2,55,0.00,CLR,,0.00,WeatherDisplay:10.37,2013-10-25 16:03:00,
2013-10-25 12:08:00,47.0,32.1,30.37,NW,314,1.2,0.0,56,0.00,CLR,,0.00,WeatherDisplay:10.37,2013-10-25 16:08:00,
2013-10-25 12:13:00,47.4,31.6,30.37,SE,142,0.0,0.0,54,0.00,CLR,,0.00,WeatherDisplay:10.37,2013-10-25 16:13:00,
2013-10-25 12:18:00,47.6,31.8,30.37,NNW,347,2.3,2.3,54,0.00,CLR,,0.00,WeatherDisplay:10.37,2013-10-25 16:18:00,
2013-10-25 12:23:00,47.9,32.0,30.36,SW,215,3.5,3.5,54,0.00,CLR,,0.00,WeatherDisplay:10.37,2013-10-25 16:23:00,
2013-10-25 12:28:00,48.2,31.4,30.37,NNW,338,3.5,3.5,52,0.00,CLR,,0.00,WeatherDisplay:10.37,2013-10-25 16:28:00,
2013-10-25 12:33:00,48.5,32.1,30.36,NW,318,3.0,3.0,53,0.00,CLR,,0.00,WeatherDisplay:10.37,2013-10-25 16:33:00,
2013-10-25 12:38:00,48.8,32.9,30.36,NW,310,3.5,3.5,54,0.00,CLR,,0.00,WeatherDisplay:10.37,2013-10-25 16:38:00,
2013-10-25 12:43:00,49.1,32.2,30.36,NW,323,3.5,3.5,52,0.00,CLR,,0.00,WeatherDisplay:10.37,2013-10-25 16:43:00,
2013-10-25 12:48:00,49.3,31.4,30.36,WNW,303,3.0,3.0,50,0.00,CLR,,0.00,WeatherDisplay:10.37,2013-10-25 16:48:00,
2013-10-25 12:53:00,49.7,32.3,30.36,NW,314,2.3,2.3,51,0.00,CLR,,0.00,WeatherDisplay:10.37,2013-10-25 16:53:00,
2013-10-25 12:58:00,49.9,31.0,30.35,North,10,5.8,5.8,48,0.00,CLR,,0.00,WeatherDisplay:10.37,2013-10-25 16:58:00,
2013-10-25 13:03:00,50.0,31.6,30.35,North,360,3.5,3.5,49,0.00,CLR,,0.00,WeatherDisplay:10.37,2013-10-25 17:03:00,
2013-10-25 13:08:00,50.1,32.2,30.35,WNW,290,5.8,5.8,50,0.00,CLR,,0.00,WeatherDisplay:10.37,2013-10-25 17:08:00,
2013-10-25 13:13:00,50.1,32.2,30.35,WNW,296,5.8,5.8,50,0.00,CLR,,0.00,WeatherDisplay:10.37,2013-10-25 17:13:00,
2013-10-25 13:18:00,50.1,31.2,30.35,NNE,33,3.5,3.5,48,0.00,CLR,,0.00,WeatherDisplay:10.37,2013-10-25 17:18:00,
2013-10-25 13:23:00,50.1,30.1,30.34,NW,315,2.3,2.3,46,0.00,CLR,,0.00,WeatherDisplay:10.37,2013-10-25 17:23:00,
2013-10-25 13:28:00,50.4,31.4,30.34,NE,54,1.2,1.2,48,0.00,CLR,,0.00,WeatherDisplay:10.37,2013-10-25 17:28:00,
2013-10-25 13:33:00,50.5,28.2,30.34,NW,314,9.2,9.2,42,0.00,CLR,,0.00,WeatherDisplay:10.37,2013-10-25 17:33:00,
2013-10-25 13:38:00,50.7,29.0,30.34,NNW,333,4.6,4.6,43,0.00,CLR,,0.00,WeatherDisplay:10.37,2013-10-25 17:38:00,
2013-10-25 13:43:00,51.1,29.9,30.33,NW,323,3.5,3.5,44,0.00,CLR,,0.00,WeatherDisplay:10.37,2013-10-25 17:43:00,
2013-10-25 13:48:00,51.2,29.4,30.33,WSW,250,3.0,3.0,43,0.00,CLR,,0.00,WeatherDisplay:10.37,2013-10-25 17:48:00,
2013-10-25 13:53:00,51.3,26.5,30.33,NNW,335,4.6,4.6,38,0.00,CLR,,0.00,WeatherDisplay:10.37,2013-10-25 17:53:00,
2013-10-25 13:58:00,51.6,28.0,30.33,NNW,329,4.6,4.6,40,0.00,CLR,,0.00,WeatherDisplay:10.37,2013-10-25 17:58:00,
2013-10-25 14:03:00,51.8,29.4,30.33,ENE,73,3.5,3.5,42,0.00,CLR,,0.00,WeatherDisplay:10.37,2013-10-25 18:03:00,
2013-10-25 14:08:00,51.7,26.9,30.33,East,80,3.5,3.5,38,0.00,CLR,,0.00,WeatherDisplay:10.37,2013-10-25 18:08:00,
2013-10-25 14:13:00,51.9,29.5,30.33,NW,309,3.5,3.5,42,0.00,CLR,,0.00,WeatherDisplay:10.37,2013-10-25 18:13:00,
2013-10-25 14:18:00,52.3,31.6,30.33,NNW,336,4.6,4.6,45,0.00,CLR,,0.00,WeatherDisplay:10.37,2013-10-25 18:18:00,
2013-10-25 14:23:00,52.5,28.8,30.32,NNW,341,4.0,4.0,40,0.00,CLR,,0.00,WeatherDisplay:10.37,2013-10-25 18:23:00,
2013-10-25 14:28:00,52.7,28.4,30.32,North,5,2.3,2.3,39,0.00,CLR,,0.00,WeatherDisplay:10.37,2013-10-25 18:28:00,
2013-10-25 14:33:00,52.8,29.7,30.32,North,355,3.5,3.5,41,0.00,CLR,,0.00,WeatherDisplay:10.37,2013-10-25 18:33:00,
2013-10-25 14:38:00,52.8,29.1,30.31,NNW,333,4.0,4.0,40,0.00,CLR,,0.00,WeatherDisplay:10.37,2013-10-25 18:38:00,
2013-10-25 14:43:00,52.9,29.8,30.31,NW,319,6.9,6.9,41,0.00,CLR,,0.00,WeatherDisplay:10.37,2013-10-25 18:43:00,
2013-10-25 14:48:00,52.9,30.4,30.31,NW,318,1.2,1.2,42,0.00,CLR,,0.00,WeatherDisplay:10.37,2013-10-25 18:48:00,
2013-10-25 14:53:00,52.8,30.9,30.31,SSW,210,2.3,2.3,43,0.00,CLR,,0.00,WeatherDisplay:10.37,2013-10-25 18:53:00,
2013-10-25 14:58:00,52.8,31.5,30.31,NNW,329,3.5,3.5,44,0.00,CLR,,0.00,WeatherDisplay:10.37,2013-10-25 18:58:00,
2013-10-25 15:03:00,52.9,31.0,30.31,WSW,250,4.0,4.0,43,0.00,CLR,,0.00,WeatherDisplay:10.37,2013-10-25 19:03:00,
2013-10-25 15:08:00,53.0,33.8,30.31,NE,52,3.5,3.5,48,0.00,CLR,,0.00,WeatherDisplay:10.37,2013-10-25 19:08:00,
2013-10-25 15:13:00,52.8,32.0,30.31,NW,308,3.5,3.5,45,0.00,CLR,,0.00,WeatherDisplay:10.37,2013-10-25 19:13:00,
2013-10-25 15:18:00,52.8,31.5,30.31,NNE,17,2.3,2.3,44,0.00,CLR,,0.00,WeatherDisplay:10.37,2013-10-25 19:18:00,
2013-10-25 15:23:00,52.8,31.5,30.31,NW,309,8.1,8.1,44,0.00,CLR,,0.00,WeatherDisplay:10.37,2013-10-25 19:23:00,
2013-10-25 15:28:00,52.9,31.6,30.30,WSW,240,3.5,3.5,44,0.00,CLR,,0.00,WeatherDisplay:10.37,2013-10-25 19:28:00,
2013-10-25 15:33:00,53.2,32.4,30.30,NNW,348,3.5,3.5,45,0.00,CLR,,0.00,WeatherDisplay:10.37,2013-10-25 19:33:00,
2013-10-25 15:38:00,53.3,30.8,30.30,NW,325,3.5,3.5,42,0.00,CLR,,0.00,WeatherDisplay:10.37,2013-10-25 19:38:00,
2013-10-25 15:43:00,53.3,30.8,30.30,North,5,4.0,4.0,42,0.00,CLR,,0.00,WeatherDisplay:10.37,2013-10-25 19:43:00,
2013-10-25 15:48:00,53.2,31.3,30.30,West,261,3.5,3.5,43,0.00,CLR,,0.00,WeatherDisplay:10.37,2013-10-25 19:48:00,
2013-10-25 15:53:00,53.3,30.8,30.30,West,278,5.0,5.0,42,0.00,CLR,,0.00,WeatherDisplay:10.37,2013-10-25 19:53:00,
2013-10-25 15:58:00,53.3,31.4,30.30,NNW,337,3.5,3.5,43,0.00,CLR,,0.00,WeatherDisplay:10.37,2013-10-25 19:58:00,
2013-10-25 16:03:00,53.5,32.7,30.30,North,351,3.0,3.0,45,0.00,CLR,,0.00,WeatherDisplay:10.37,2013-10-25 20:03:00,
2013-10-25 16:08:00,53.4,34.2,30.30,NW,322,2.3,2.3,48,0.00,CLR,,0.00,WeatherDisplay:10.37,2013-10-25 20:08:00,
2013-10-25 16:13:00,53.2,33.5,30.30,WSW,246,4.0,4.0,47,0.00,CLR,,0.00,WeatherDisplay:10.37,2013-10-25 20:13:00,
2013-10-25 16:18:00,53.2,32.4,30.30,West,276,3.5,3.5,45,0.00,CLR,,0.00,WeatherDisplay:10.37,2013-10-25 20:18:00,
2013-10-25 16:23:00,53.4,32.0,30.30,NNW,342,4.6,4.6,44,0.00,CLR,,0.00,WeatherDisplay:10.37,2013-10-25 20:23:00,
2013-10-25 16:28:00,53.5,32.1,30.30,West,265,2.3,2.3,44,0.00,CLR,,0.00,WeatherDisplay:10.37,2013-10-25 20:28:00,
2013-10-25 16:33:00,53.5,32.7,30.30,SW,218,4.6,4.6,45,0.00,CLR,,0.00,WeatherDisplay:10.37,2013-10-25 20:33:00,
2013-10-25 16:38:00,53.7,33.9,30.30,North,11,1.2,1.2,47,0.00,CLR,,0.00,WeatherDisplay:10.37,2013-10-25 20:38:00,
2013-10-25 16:43:00,53.7,33.4,30.30,West,271,3.5,3.5,46,0.00,CLR,,0.00,WeatherDisplay:10.37,2013-10-25 20:43:00,
2013-10-25 16:48:00,53.8,32.4,30.30,NW,312,3.5,3.5,44,0.00,CLR,,0.00,WeatherDisplay:10.37,2013-10-25 20:48:00,
2013-10-25 16:53:00,53.8,31.8,30.30,WNW,285,3.5,3.5,43,0.00,CLR,,0.00,WeatherDisplay:10.37,2013-10-25 20:53:00,
2013-10-25 16:58:00,53.8,35.1,30.30,SW,225,3.5,3.5,49,0.00,CLR,,0.00,WeatherDisplay:10.37,2013-10-25 20:58:00,
2013-10-25 17:03:00,53.7,35.0,30.30,NW,309,0.0,0.0,49,0.00,CLR,,0.00,WeatherDisplay:10.37,2013-10-25 21:03:00,
2013-10-25 17:08:00,53.6,32.8,30.30,NNW,336,3.5,3.5,45,0.00,CLR,,0.00,WeatherDisplay:10.37,2013-10-25 21:08:00,
2013-10-25 17:13:00,53.5,32.7,30.30,WNW,293,4.6,4.6,45,0.00,CLR,,0.00,WeatherDisplay:10.37,2013-10-25 21:13:00,
2013-10-25 17:18:00,53.5,35.8,30.30,WNW,294,4.6,4.6,51,0.00,CLR,,0.00,WeatherDisplay:10.37,2013-10-25 21:18:00,
2013-10-25 17:23:00,53.4,32.6,30.30,North,355,3.5,3.5,45,0.00,CLR,,0.00,WeatherDisplay:10.37,2013-10-25 21:23:00,
2013-10-25 17:28:00,53.2,34.0,30.30,West,274,3.5,3.5,48,0.00,CLR,,0.00,WeatherDisplay:10.37,2013-10-25 21:28:00,
2013-10-25 17:33:00,53.0,32.8,30.30,NW,304,3.5,3.5,46,0.00,CLR,,0.00,WeatherDisplay:10.37,2013-10-25 21:33:00,
2013-10-25 17:38:00,52.8,33.6,30.30,NNW,332,3.5,3.5,48,0.00,CLR,,0.00,WeatherDisplay:10.37,2013-10-25 21:38:00,
2013-10-25 17:43:00,52.7,31.9,30.30,NNW,342,5.8,5.8,45,0.00,CLR,,0.00,WeatherDisplay:10.37,2013-10-25 21:43:00,
2013-10-25 17:48:00,52.5,32.3,30.29,West,273,2.3,2.3,46,0.00,CLR,,0.00,WeatherDisplay:10.37,2013-10-25 21:48:00,
2013-10-25 17:53:00,52.3,32.1,30.30,NNW,342,1.2,1.2,46,0.00,CLR,,0.00,WeatherDisplay:10.37,2013-10-25 21:53:00,
2013-10-25 17:58:00,52.1,32.5,30.30,NW,308,3.5,3.5,47,0.00,CLR,,0.00,WeatherDisplay:10.37,2013-10-25 21:58:00,
2013-10-25 18:03:00,51.9,32.3,30.30,NNW,348,2.3,2.3,47,0.00,CLR,,0.00,WeatherDisplay:10.37,2013-10-25 22:03:00,
2013-10-25 18:08:00,51.6,31.5,30.30,West,268,2.3,2.3,46,0.00,CLR,,0.00,WeatherDisplay:10.37,2013-10-25 22:08:00,
2013-10-25 18:13:00,51.3,31.2,30.30,NW,317,3.5,3.5,46,0.00,CLR,,0.00,WeatherDisplay:10.37,2013-10-25 22:13:00,
2013-10-25 18:18:00,51.1,31.6,30.30,NNW,331,1.2,1.2,47,0.00,CLR,,0.00,WeatherDisplay:10.37,2013-10-25 22:18:00,
2013-10-25 18:23:00,50.9,31.4,30.30,NNW,337,2.0,2.0,47,0.00,CLR,,0.00,WeatherDisplay:10.37,2013-10-25 22:23:00,
2013-10-25 18:28:00,50.6,31.6,30.30,NNW,331,3.5,3.5,48,0.00,CLR,,0.00,WeatherDisplay:10.37,2013-10-25 22:28:00,
2013-10-25 18:33:00,50.4,31.9,30.30,NNW,341,1.2,1.2,49,0.00,CLR,,0.00,WeatherDisplay:10.37,2013-10-25 22:33:00,
2013-10-25 18:38:00,50.2,32.8,30.30,NW,310,3.5,3.5,51,0.00,CLR,,0.00,WeatherDisplay:10.37,2013-10-25 22:38:00,
2013-10-25 18:43:00,49.8,32.4,30.30,WNW,286,1.0,1.0,51,0.00,CLR,,0.00,WeatherDisplay:10.37,2013-10-25 22:43:00,
2013-10-25 18:48:00,49.6,32.7,30.30,WNW,286,1.2,1.2,52,0.00,CLR,,0.00,WeatherDisplay:10.37,2013-10-25 22:48:00,
2013-10-25 18:53:00,49.4,33.4,30.31,WNW,286,0.0,0.0,54,0.00,CLR,,0.00,WeatherDisplay:10.37,2013-10-25 22:53:00,
2013-10-25 18:58:00,49.1,33.2,30.31,WNW,286,1.2,1.2,54,0.00,CLR,,0.00,WeatherDisplay:10.37,2013-10-25 22:58:00,
2013-10-25 19:03:00,48.8,34.2,30.31,WNW,294,1.2,0.0,57,0.00,CLR,,0.00,WeatherDisplay:10.37,2013-10-25 23:03:00,
2013-10-25 19:08:00,48.5,33.9,30.31,WNW,295,1.2,1.2,57,0.00,CLR,,0.00,WeatherDisplay:10.37,2013-10-25 23:08:00,
2013-10-25 19:13:00,48.2,33.2,30.30,WNW,295,1.2,0.0,56,0.00,CLR,,0.00,WeatherDisplay:10.37,2013-10-25 23:13:00,
2013-10-25 19:18:00,47.8,33.3,30.30,NW,308,1.2,1.2,57,0.00,CLR,,0.00,WeatherDisplay:10.37,2013-10-25 23:18:00,
2013-10-25 19:23:00,47.5,33.0,30.30,NNW,333,3.5,3.5,57,0.00,CLR,,0.00,WeatherDisplay:10.37,2013-10-25 23:23:00,
2013-10-25 19:28:00,47.2,32.7,30.31,WNW,293,1.2,1.2,57,0.00,CLR,,0.00,WeatherDisplay:10.37,2013-10-25 23:28:00,
2013-10-25 19:33:00,47.0,33.0,30.31,NNW,340,1.2,1.2,58,0.00,CLR,,0.00,WeatherDisplay:10.37,2013-10-25 23:33:00,
2013-10-25 19:38:00,46.8,33.2,30.31,NNW,340,0.0,0.0,59,0.00,CLR,,0.00,WeatherDisplay:10.37,2013-10-25 23:38:00,
2013-10-25 19:43:00,46.6,33.4,30.31,NNW,340,1.2,1.2,60,0.00,CLR,,0.00,WeatherDisplay:10.37,2013-10-25 23:43:00,
2013-10-25 19:48:00,46.3,33.6,30.31,NW,319,1.0,1.0,61,0.00,CLR,,0.00,WeatherDisplay:10.37,2013-10-25 23:48:00,
2013-10-25 19:53:00,46.1,33.8,30.31,NW,319,1.2,1.2,62,0.00,CLR,,0.00,WeatherDisplay:10.37,2013-10-25 23:53:00,
2013-10-25 19:58:00,45.9,33.6,30.31,NW,325,1.2,0.0,62,0.00,CLR,,0.00,WeatherDisplay:10.37,2013-10-25 23:58:00,
2013-10-25 20:03:00,45.6,32.9,30.31,NW,325,2.3,2.3,61,0.00,CLR,,0.00,WeatherDisplay:10.37,2013-10-26 00:03:00,
2013-10-25 20:08:00,45.4,32.7,30.31,NW,325,1.2,0.0,61,0.00,CLR,,0.00,WeatherDisplay:10.37,2013-10-26 00:08:00,
2013-10-25 20:13:00,45.2,32.9,30.31,WSW,258,1.0,1.0,62,0.00,CLR,,0.00,WeatherDisplay:10.37,2013-10-26 00:13:00,
2013-10-25 20:18:00,44.9,34.2,30.31,WSW,239,1.2,1.2,66,0.00,CLR,,0.00,WeatherDisplay:10.37,2013-10-26 00:18:00,
2013-10-25 20:23:00,44.7,34.8,30.31,NW,323,1.2,1.2,68,0.00,CLR,,0.00,WeatherDisplay:10.37,2013-10-26 00:23:00,
2013-10-25 20:28:00,44.4,33.4,30.32,NW,323,1.0,0.0,65,0.00,CLR,,0.00,WeatherDisplay:10.37,2013-10-26 00:28:00,
2013-10-25 20:33:00,44.2,32.8,30.32,NW,321,0.0,0.0,64,0.00,CLR,,0.00,WeatherDisplay:10.37,2013-10-26 00:33:00,
2013-10-25 20:38:00,44.1,32.7,30.32,NW,321,1.0,1.0,64,0.00,CLR,,0.00,WeatherDisplay:10.37,2013-10-26 00:38:00,
2013-10-25 20:43:00,43.9,32.9,30.32,NW,322,1.0,1.0,65,0.00,CLR,,0.00,WeatherDisplay:10.37,2013-10-26 00:43:00,
2013-10-25 20:48:00,43.8,32.8,30.32,NW,321,0.0,0.0,65,0.00,CLR,,0.00,WeatherDisplay:10.37,2013-10-26 00:48:00,
2013-10-25 20:53:00,43.6,32.6,30.32,WNW,300,1.2,0.0,65,0.00,CLR,,0.00,WeatherDisplay:10.37,2013-10-26 00:53:00,
2013-10-25 20:58:00,43.5,32.5,30.32,WNW,300,2.3,2.3,65,0.00,CLR,,0.00,WeatherDisplay:10.37,2013-10-26 00:58:00,
2013-10-25 21:03:00,43.4,32.4,30.32,WNW,300,1.2,1.2,65,0.00,CLR,,0.00,WeatherDisplay:10.37,2013-10-26 01:03:00,
2013-10-25 21:08:00,43.3,32.7,30.32,WNW,300,0.0,0.0,66,0.00,CLR,,0.00,WeatherDisplay:10.37,2013-10-26 01:08:00,
2013-10-25 21:13:00,43.1,32.5,30.32,WNW,300,0.0,0.0,66,0.00,CLR,,0.00,WeatherDisplay:10.37,2013-10-26 01:13:00,
2013-10-25 21:18:00,43.0,33.2,30.32,WNW,300,0.0,0.0,68,0.00,CLR,,0.00,WeatherDisplay:10.37,2013-10-26 01:18:00,
2013-10-25 21:23:00,42.9,34.1,30.32,WNW,300,0.0,0.0,71,0.00,CLR,,0.00,WeatherDisplay:10.37,2013-10-26 01:23:00,
2013-10-25 21:28:00,42.7,33.9,30.32,WNW,300,0.0,0.0,71,0.00,CLR,,0.00,WeatherDisplay:10.37,2013-10-26 01:28:00,
2013-10-25 21:33:00,42.6,34.9,30.32,WNW,300,0.0,0.0,74,0.00,CLR,,0.00,WeatherDisplay:10.37,2013-10-26 01:33:00,
2013-10-25 21:38:00,42.4,33.7,30.32,WNW,300,0.0,0.0,71,0.00,CLR,,0.00,WeatherDisplay:10.37,2013-10-26 01:38:00,
2013-10-25 21:43:00,42.2,34.2,30.32,WNW,300,0.0,0.0,73,0.00,CLR,,0.00,WeatherDisplay:10.37,2013-10-26 01:43:00,
2013-10-25 21:48:00,42.1,33.7,30.33,WNW,300,0.0,0.0,72,0.00,CLR,,0.00,WeatherDisplay:10.37,2013-10-26 01:48:00,
2013-10-25 21:53:00,41.9,34.2,30.33,WNW,300,0.0,0.0,74,0.00,CLR,,0.00,WeatherDisplay:10.37,2013-10-26 01:53:00,
2013-10-25 21:58:00,41.8,33.8,30.33,WNW,300,0.0,0.0,73,0.00,CLR,,0.00,WeatherDisplay:10.37,2013-10-26 01:58:00,
2013-10-25 22:03:00,41.5,33.8,30.33,WNW,300,0.0,0.0,74,0.00,CLR,,0.00,WeatherDisplay:10.37,2013-10-26 02:03:00,
2013-10-25 22:08:00,41.4,33.7,30.33,WNW,300,0.0,0.0,74,0.00,CLR,,0.00,WeatherDisplay:10.37,2013-10-26 02:08:00,
2013-10-25 22:13:00,41.2,33.5,30.33,WNW,300,0.0,0.0,74,0.00,CLR,,0.00,WeatherDisplay:10.37,2013-10-26 02:13:00,
2013-10-25 22:18:00,41.1,33.4,30.33,WNW,300,0.0,0.0,74,0.00,CLR,,0.00,WeatherDisplay:10.37,2013-10-26 02:18:00,
2013-10-25 22:23:00,40.9,33.6,30.33,WNW,300,0.0,0.0,75,0.00,CLR,,0.00,WeatherDisplay:10.37,2013-10-26 02:23:00,
2013-10-25 22:28:00,40.7,33.4,30.33,WNW,300,0.0,0.0,75,0.00,CLR,,0.00,WeatherDisplay:10.37,2013-10-26 02:28:00,
2013-10-25 22:33:00,40.5,33.5,30.33,WNW,300,0.0,0.0,76,0.00,CLR,,0.00,WeatherDisplay:10.37,2013-10-26 02:33:00,
2013-10-25 22:38:00,40.3,34.0,30.33,WNW,300,0.0,0.0,78,0.00,CLR,,0.00,WeatherDisplay:10.37,2013-10-26 02:38:00,
2013-10-25 22:43:00,40.1,34.1,30.34,WNW,300,0.0,0.0,79,0.00,CLR,,0.00,WeatherDisplay:10.37,2013-10-26 02:43:00,
2013-10-25 22:48:00,39.8,33.8,30.34,WNW,300,0.0,0.0,79,0.00,CLR,,0.00,WeatherDisplay:10.37,2013-10-26 02:48:00,
2013-10-25 22:53:00,39.6,33.6,30.34,WNW,300,0.0,0.0,79,0.00,CLR,,0.00,WeatherDisplay:10.37,2013-10-26 02:53:00,
2013-10-25 22:58:00,39.5,33.8,30.34,WNW,300,0.0,0.0,80,0.00,CLR,,0.00,WeatherDisplay:10.37,2013-10-26 02:58:00,
2013-10-25 23:03:00,39.3,33.3,30.34,WNW,300,0.0,0.0,79,0.00,CLR,,0.00,WeatherDisplay:10.37,2013-10-26 03:03:00,
2013-10-25 23:08:00,39.2,33.5,30.34,WNW,300,0.0,0.0,80,0.00,CLR,,0.00,WeatherDisplay:10.37,2013-10-26 03:08:00,
2013-10-25 23:13:00,39.1,33.8,30.34,WNW,300,0.0,0.0,81,0.00,CLR,,0.00,WeatherDisplay:10.37,2013-10-26 03:13:00,
2013-10-25 23:18:00,39.0,33.7,30.34,WNW,300,0.0,0.0,81,0.00,CLR,,0.00,WeatherDisplay:10.37,2013-10-26 03:18:00,
2013-10-25 23:23:00,38.8,33.8,30.34,WNW,300,0.0,0.0,82,0.00,CLR,,0.00,WeatherDisplay:10.37,2013-10-26 03:23:00,
2013-10-25 23:28:00,38.6,33.9,30.34,WNW,300,0.0,0.0,83,0.00,CLR,,0.00,WeatherDisplay:10.37,2013-10-26 03:28:00,
2013-10-25 23:33:00,38.4,33.7,30.34,WNW,300,0.0,0.0,83,0.00,CLR,,0.00,WeatherDisplay:10.37,2013-10-26 03:33:00,
2013-10-25 23:38:00,38.2,33.2,30.34,WNW,300,0.0,0.0,82,0.00,CLR,,0.00,WeatherDisplay:10.37,2013-10-26 03:38:00,
2013-10-25 23:43:00,37.9,33.2,30.34,WNW,300,0.0,0.0,83,0.00,CLR,,0.00,WeatherDisplay:10.37,2013-10-26 03:43:00,
2013-10-25 23:48:00,37.6,32.9,30.34,WNW,300,0.0,0.0,83,0.00,CLR,,0.00,WeatherDisplay:10.37,2013-10-26 03:48:00,
2013-10-25 23:53:00,37.5,33.1,30.34,WNW,300,0.0,0.0,84,0.00,CLR,,0.00,WeatherDisplay:10.37,2013-10-26 03:53:00,
2013-10-25 23:58:00,37.4,33.3,30.34,WNW,300,0.0,0.0,85,0.00,CLR,,0.00,WeatherDisplay:10.37,2013-10-26 03:58:00,